Portada
METAR-TAF:

METAR-TAF

Aeroports :

Khurramabad, Iran

latitud: 33-26-11N, longitud: 048-17-09E, altitud: 1155 m

Observació

L'informe es va fer fa 9 hores i 13 minuts, a les 11:00 UTC
Vent 4 kt del Est
Temperatura 18°C
Humitat 64%
Pressió 1019 hPa
Visibilitat 10 km o més
Escasses núvols a una alçada de 3500 ft, Cumulonimbus.
Núvols disperses a una alçada de 4000 ft
Cel ennuvolat a una alçada de 8000 ft

METAR: OICK 071100Z 09004KT 9999 FEW035CB SCT040 BKN080 18/11 Q1019 RESHRA

Hora: 00:43 (20:13 UTC)


TAF: manca

Observacions i pronòstics meteorològics de més de 4000 aeroports (METAR i TAF).

Les estacions disponibles són els punts grocs i vermells al mapa.

Posi el ratolí al punt desitjat per veure el nom de l'estació.

Feu clic per veure les observacions i els pronòstics meteorològics.

Per canviar el mapa: feu clic els botons verds amb una creu de color negre per apropar; al botó verd amb un guió per allunyar la imatge; o en les fletxes verdes per a mapes adjacents.


METAR-TAF: